sensor_id;sensor_type;location;lat;lon;timestamp;P1;durP1;ratioP1;P2;durP2;ratioP2
22284;SDS011;11311;52.192;20.900;2023-04-01T00:01:50;28.48;;;19.05;;
22284;SDS011;11311;52.192;20.900;2023-04-01T00:04:20;27.13;;;20.27;;
22284;SDS011;11311;52.192;20.900;2023-04-01T00:06:50;26.88;;;18.15;;
22284;SDS011;11311;52.192;20.900;2023-04-01T00:09:19;36.65;;;22.00;;
22284;SDS011;11311;52.192;20.900;2023-04-01T00:11:48;28.25;;;20.35;;
22284;SDS011;11311;52.192;20.900;2023-04-01T00:14:17;25.95;;;20.13;;
22284;SDS011;11311;52.192;20.900;2023-04-01T00:16:46;29.55;;;22.00;;
22284;SDS011;11311;52.192;20.900;2023-04-01T00:19:15;29.55;;;21.77;;
22284;SDS011;11311;52.192;20.900;2023-04-01T00:21:44;30.25;;;22.45;;
22284;SDS011;11311;52.192;20.900;2023-04-01T00:24:14;33.55;;;23.55;;
22284;SDS011;11311;52.192;20.900;2023-04-01T00:26:44;33.13;;;23.33;;
22284;SDS011;11311;52.192;20.900;2023-04-01T00:29:14;34.88;;;21.88;;
22284;SDS011;11311;52.192;20.900;2023-04-01T00:31:43;30.65;;;24.30;;
22284;SDS011;11311;52.192;20.900;2023-04-01T00:34:12;32.00;;;24.27;;
22284;SDS011;11311;52.192;20.900;2023-04-01T00:36:41;33.63;;;23.42;;
22284;SDS011;11311;52.192;20.900;2023-04-01T00:39:10;32.83;;;23.17;;
22284;SDS011;11311;52.192;20.900;2023-04-01T00:41:40;26.63;;;22.30;;
22284;SDS011;11311;52.192;20.900;2023-04-01T00:44:15;36.17;;;22.75;;
22284;SDS011;11311;52.192;20.900;2023-04-01T00:46:45;27.65;;;22.13;;
22284;SDS011;11311;52.192;20.900;2023-04-01T00:49:14;31.42;;;22.67;;
22284;SDS011;11311;52.192;20.900;2023-04-01T00:51:46;28.83;;;23.73;;
22284;SDS011;11311;52.192;20.900;2023-04-01T00:54:19;33.08;;;24.65;;
22284;SDS011;11311;52.192;20.900;2023-04-01T00:56:51;30.15;;;23.08;;
22284;SDS011;11311;52.192;20.900;2023-04-01T00:59:26;29.88;;;24.23;;
22284;SDS011;11311;52.192;20.900;2023-04-01T01:01:57;30.80;;;23.38;;
22284;SDS011;11311;52.192;20.900;2023-04-01T01:04:26;30.17;;;22.67;;
22284;SDS011;11311;52.192;20.900;2023-04-01T01:06:58;33.10;;;24.60;;
22284;SDS011;11311;52.192;20.900;2023-04-01T01:09:37;29.85;;;23.38;;
22284;SDS011;11311;52.192;20.900;2023-04-01T01:12:12;32.22;;;22.50;;
22284;SDS011;11311;52.192;20.900;2023-04-01T01:14:45;32.45;;;25.40;;
22284;SDS011;11311;52.192;20.900;2023-04-01T01:17:22;29.63;;;23.73;;
22284;SDS011;11311;52.192;20.900;2023-04-01T01:20:03;35.05;;;27.02;;
22284;SDS011;11311;52.192;20.900;2023-04-01T01:23:13;34.33;;;24.15;;
22284;SDS011;11311;52.192;20.900;2023-04-01T01:25:54;34.65;;;25.30;;
22284;SDS011;11311;52.192;20.900;2023-04-01T01:28:37;44.70;;;30.75;;
22284;SDS011;11311;52.192;20.900;2023-04-01T01:31:16;41.03;;;28.33;;
22284;SDS011;11311;52.192;20.900;2023-04-01T01:33:50;41.95;;;28.05;;
22284;SDS011;11311;52.192;20.900;2023-04-01T01:36:28;37.90;;;29.15;;
22284;SDS011;11311;52.192;20.900;2023-04-01T01:38:59;40.08;;;29.20;;
22284;SDS011;11311;52.192;20.900;2023-04-01T01:41:28;44.55;;;30.05;;
22284;SDS011;11311;52.192;20.900;2023-04-01T01:43:58;38.63;;;29.08;;
22284;SDS011;11311;52.192;20.900;2023-04-01T01:46:27;41.65;;;30.83;;
22284;SDS011;11311;52.192;20.900;2023-04-01T01:48:58;34.45;;;28.63;;
22284;SDS011;11311;52.192;20.900;2023-04-01T01:51:30;41.53;;;27.88;;
22284;SDS011;11311;52.192;20.900;2023-04-01T01:54:01;37.05;;;28.77;;
22284;SDS011;11311;52.192;20.900;2023-04-01T01:56:31;39.08;;;30.25;;
22284;SDS011;11311;52.192;20.900;2023-04-01T01:59:02;38.65;;;29.50;;
22284;SDS011;11311;52.192;20.900;2023-04-01T02:01:32;44.13;;;31.08;;
22284;SDS011;11311;52.192;20.900;2023-04-01T02:04:11;36.65;;;30.98;;
22284;SDS011;11311;52.192;20.900;2023-04-01T02:06:45;39.75;;;30.05;;
22284;SDS011;11311;52.192;20.900;2023-04-01T02:09:17;41.55;;;31.95;;
22284;SDS011;11311;52.192;20.900;2023-04-01T02:11:48;41.33;;;30.58;;
22284;SDS011;11311;52.192;20.900;2023-04-01T02:14:19;40.20;;;29.38;;
22284;SDS011;11311;52.192;20.900;2023-04-01T02:16:50;38.28;;;29.17;;
22284;SDS011;11311;52.192;20.900;2023-04-01T02:19:21;35.13;;;30.65;;
22284;SDS011;11311;52.192;20.900;2023-04-01T02:21:55;40.95;;;29.25;;
22284;SDS011;11311;52.192;20.900;2023-04-01T02:24:26;38.15;;;29.17;;
22284;SDS011;11311;52.192;20.900;2023-04-01T02:26:56;40.20;;;30.90;;
22284;SDS011;11311;52.192;20.900;2023-04-01T02:29:26;42.35;;;32.38;;
22284;SDS011;11311;52.192;20.900;2023-04-01T02:31:56;39.03;;;29.90;;
22284;SDS011;11311;52.192;20.900;2023-04-01T02:34:25;39.35;;;30.75;;
22284;SDS011;11311;52.192;20.900;2023-04-01T02:36:55;40.90;;;32.17;;
22284;SDS011;11311;52.192;20.900;2023-04-01T02:39:25;45.70;;;34.58;;
22284;SDS011;11311;52.192;20.900;2023-04-01T02:41:54;43.17;;;33.50;;
22284;SDS011;11311;52.192;20.900;2023-04-01T02:44:23;43.47;;;34.28;;
22284;SDS011;11311;52.192;20.900;2023-04-01T02:46:52;47.50;;;34.55;;
22284;SDS011;11311;52.192;20.900;2023-04-01T02:49:21;47.47;;;36.07;;
22284;SDS011;11311;52.192;20.900;2023-04-01T02:51:50;53.72;;;36.90;;
22284;SDS011;11311;52.192;20.900;2023-04-01T02:54:21;44.60;;;37.58;;
22284;SDS011;11311;52.192;20.900;2023-04-01T02:59:18;50.80;;;38.22;;
22284;SDS011;11311;52.192;20.900;2023-04-01T03:01:47;54.80;;;38.80;;
22284;SDS011;11311;52.192;20.900;2023-04-01T03:04:16;49.13;;;38.15;;
22284;SDS011;11311;52.192;20.900;2023-04-01T03:06:45;49.30;;;37.80;;
22284;SDS011;11311;52.192;20.900;2023-04-01T03:09:14;44.75;;;34.47;;
22284;SDS011;11311;52.192;20.900;2023-04-01T03:11:44;42.13;;;31.85;;
22284;SDS011;11311;52.192;20.900;2023-04-01T03:14:13;43.13;;;32.20;;
22284;SDS011;11311;52.192;20.900;2023-04-01T03:16:42;37.58;;;32.05;;
22284;SDS011;11311;52.192;20.900;2023-04-01T03:19:11;40.75;;;30.40;;
22284;SDS011;11311;52.192;20.900;2023-04-01T03:21:40;44.17;;;33.47;;
22284;SDS011;11311;52.192;20.900;2023-04-01T03:24:09;39.25;;;31.08;;
22284;SDS011;11311;52.192;20.900;2023-04-01T03:26:38;46.67;;;32.40;;
22284;SDS011;11311;52.192;20.900;2023-04-01T03:29:09;43.40;;;31.95;;
22284;SDS011;11311;52.192;20.900;2023-04-01T03:31:37;37.88;;;31.73;;
22284;SDS011;11311;52.192;20.900;2023-04-01T03:34:07;43.10;;;32.80;;
22284;SDS011;11311;52.192;20.900;2023-04-01T03:36:36;42.15;;;31.45;;
22284;SDS011;11311;52.192;20.900;2023-04-01T03:39:05;39.90;;;30.30;;
22284;SDS011;11311;52.192;20.900;2023-04-01T03:41:40;38.85;;;30.15;;
22284;SDS011;11311;52.192;20.900;2023-04-01T03:44:10;39.15;;;29.70;;
22284;SDS011;11311;52.192;20.900;2023-04-01T03:46:39;39.67;;;31.23;;
22284;SDS011;11311;52.192;20.900;2023-04-01T03:49:08;42.40;;;31.40;;
22284;SDS011;11311;52.192;20.900;2023-04-01T03:54:07;44.65;;;28.52;;
22284;SDS011;11311;52.192;20.900;2023-04-01T03:56:37;39.42;;;30.17;;
22284;SDS011;11311;52.192;20.900;2023-04-01T03:59:07;38.45;;;28.77;;
22284;SDS011;11311;52.192;20.900;2023-04-01T04:01:37;39.63;;;29.00;;
22284;SDS011;11311;52.192;20.900;2023-04-01T04:04:06;35.80;;;27.45;;
22284;SDS011;11311;52.192;20.900;2023-04-01T04:06:35;30.15;;;26.58;;
22284;SDS011;11311;52.192;20.900;2023-04-01T04:09:04;34.33;;;27.85;;
22284;SDS011;11311;52.192;20.900;2023-04-01T04:11:34;36.43;;;27.43;;
22284;SDS011;11311;52.192;20.900;2023-04-01T04:14:03;30.88;;;23.85;;
22284;SDS011;11311;52.192;20.900;2023-04-01T04:16:31;28.48;;;25.25;;
22284;SDS011;11311;52.192;20.900;2023-04-01T04:19:03;30.52;;;22.58;;
22284;SDS011;11311;52.192;20.900;2023-04-01T04:21:32;24.65;;;21.70;;
22284;SDS011;11311;52.192;20.900;2023-04-01T04:24:02;28.73;;;21.33;;
22284;SDS011;11311;52.192;20.900;2023-04-01T04:26:51;30.33;;;21.05;;
22284;SDS011;11311;52.192;20.900;2023-04-01T04:29:20;29.90;;;23.05;;
22284;SDS011;11311;52.192;20.900;2023-04-01T04:31:50;31.70;;;25.13;;
22284;SDS011;11311;52.192;20.900;2023-04-01T04:34:20;28.75;;;22.95;;
22284;SDS011;11311;52.192;20.900;2023-04-01T04:36:50;23.45;;;19.48;;
22284;SDS011;11311;52.192;20.900;2023-04-01T04:41:49;26.20;;;20.27;;
22284;SDS011;11311;52.192;20.900;2023-04-01T04:44:18;25.70;;;18.95;;
22284;SDS011;11311;52.192;20.900;2023-04-01T04:46:47;26.08;;;19.88;;
22284;SDS011;11311;52.192;20.900;2023-04-01T04:49:16;23.85;;;20.33;;
22284;SDS011;11311;52.192;20.900;2023-04-01T04:51:47;24.15;;;19.92;;
22284;SDS011;11311;52.192;20.900;2023-04-01T04:54:19;24.33;;;20.23;;
22284;SDS011;11311;52.192;20.900;2023-04-01T04:56:55;24.23;;;21.25;;
22284;SDS011;11311;52.192;20.900;2023-04-01T04:59:25;24.15;;;21.58;;
22284;SDS011;11311;52.192;20.900;2023-04-01T05:02:05;25.73;;;21.38;;
22284;SDS011;11311;52.192;20.900;2023-04-01T05:04:34;27.35;;;24.52;;
22284;SDS011;11311;52.192;20.900;2023-04-01T05:07:08;24.33;;;21.85;;
22284;SDS011;11311;52.192;20.900;2023-04-01T05:09:38;26.15;;;23.33;;
22284;SDS011;11311;52.192;20.900;2023-04-01T05:12:07;25.42;;;22.15;;
22284;SDS011;11311;52.192;20.900;2023-04-01T05:14:53;25.88;;;22.17;;
22284;SDS011;11311;52.192;20.900;2023-04-01T05:17:23;26.83;;;22.43;;
22284;SDS011;11311;52.192;20.900;2023-04-01T05:19:52;22.33;;;20.02;;
22284;SDS011;11311;52.192;20.900;2023-04-01T05:22:22;24.58;;;19.65;;
22284;SDS011;11311;52.192;20.900;2023-04-01T05:24:52;22.90;;;19.45;;
22284;SDS011;11311;52.192;20.900;2023-04-01T05:27:21;19.20;;;16.17;;
22284;SDS011;11311;52.192;20.900;2023-04-01T05:29:50;16.98;;;15.30;;
22284;SDS011;11311;52.192;20.900;2023-04-01T05:32:39;17.92;;;15.65;;
22284;SDS011;11311;52.192;20.900;2023-04-01T05:35:08;14.98;;;13.50;;
22284;SDS011;11311;52.192;20.900;2023-04-01T05:37:38;16.67;;;14.65;;
22284;SDS011;11311;52.192;20.900;2023-04-01T05:42:36;15.60;;;13.98;;
22284;SDS011;11311;52.192;20.900;2023-04-01T05:45:06;19.98;;;14.20;;
22284;SDS011;11311;52.192;20.900;2023-04-01T05:47:55;14.55;;;12.68;;
22284;SDS011;11311;52.192;20.900;2023-04-01T05:50:24;15.57;;;14.02;;
22284;SDS011;11311;52.192;20.900;2023-04-01T05:52:54;13.38;;;11.70;;
22284;SDS011;11311;52.192;20.900;2023-04-01T05:57:51;15.55;;;13.90;;
22284;SDS011;11311;52.192;20.900;2023-04-01T06:00:20;16.55;;;14.70;;
22284;SDS011;11311;52.192;20.900;2023-04-01T06:02:50;17.73;;;14.57;;
22284;SDS011;11311;52.192;20.900;2023-04-01T06:05:20;18.50;;;16.65;;
22284;SDS011;11311;52.192;20.900;2023-04-01T06:07:50;18.85;;;17.05;;
22284;SDS011;11311;52.192;20.900;2023-04-01T06:10:21;20.30;;;17.52;;
22284;SDS011;11311;52.192;20.900;2023-04-01T06:13:00;22.42;;;20.10;;
22284;SDS011;11311;52.192;20.900;2023-04-01T06:15:38;28.50;;;24.83;;
22284;SDS011;11311;52.192;20.900;2023-04-01T06:18:16;31.33;;;26.75;;
22284;SDS011;11311;52.192;20.900;2023-04-01T06:21:05;30.02;;;26.77;;
22284;SDS011;11311;52.192;20.900;2023-04-01T06:23:52;27.38;;;24.52;;
22284;SDS011;11311;52.192;20.900;2023-04-01T06:26:29;25.90;;;23.13;;
22284;SDS011;11311;52.192;20.900;2023-04-01T06:29:18;28.38;;;24.70;;
22284;SDS011;11311;52.192;20.900;2023-04-01T06:32:03;28.70;;;23.50;;
22284;SDS011;11311;52.192;20.900;2023-04-01T06:34:48;28.15;;;25.02;;
22284;SDS011;11311;52.192;20.900;2023-04-01T06:37:40;29.58;;;24.73;;
22284;SDS011;11311;52.192;20.900;2023-04-01T06:43:14;30.95;;;27.67;;
22284;SDS011;11311;52.192;20.900;2023-04-01T06:46:06;38.15;;;28.17;;
22284;SDS011;11311;52.192;20.900;2023-04-01T06:49:03;30.90;;;27.63;;
22284;SDS011;11311;52.192;20.900;2023-04-01T06:51:43;29.52;;;26.42;;
22284;SDS011;11311;52.192;20.900;2023-04-01T06:54:35;29.52;;;26.55;;
22284;SDS011;11311;52.192;20.900;2023-04-01T06:57:19;34.80;;;29.83;;
22284;SDS011;11311;52.192;20.900;2023-04-01T06:59:52;30.30;;;27.08;;
22284;SDS011;11311;52.192;20.900;2023-04-01T07:02:25;33.00;;;29.63;;
22284;SDS011;11311;52.192;20.900;2023-04-01T07:04:58;31.25;;;28.15;;
22284;SDS011;11311;52.192;20.900;2023-04-01T07:07:31;35.95;;;28.73;;
22284;SDS011;11311;52.192;20.900;2023-04-01T07:10:09;32.53;;;28.20;;
22284;SDS011;11311;52.192;20.900;2023-04-01T07:13:02;32.47;;;29.23;;
22284;SDS011;11311;52.192;20.900;2023-04-01T07:16:05;33.15;;;27.83;;
22284;SDS011;11311;52.192;20.900;2023-04-01T07:18:41;33.83;;;30.27;;
22284;SDS011;11311;52.192;20.900;2023-04-01T07:21:17;33.35;;;29.58;;
22284;SDS011;11311;52.192;20.900;2023-04-01T07:23:51;32.03;;;28.23;;
22284;SDS011;11311;52.192;20.900;2023-04-01T07:26:34;33.17;;;29.77;;
22284;SDS011;11311;52.192;20.900;2023-04-01T07:29:04;35.55;;;31.88;;
22284;SDS011;11311;52.192;20.900;2023-04-01T07:34:35;35.70;;;29.25;;
22284;SDS011;11311;52.192;20.900;2023-04-01T07:37:10;31.85;;;28.70;;
22284;SDS011;11311;52.192;20.900;2023-04-01T07:39:45;31.90;;;28.55;;
22284;SDS011;11311;52.192;20.900;2023-04-01T07:42:35;29.92;;;26.77;;
22284;SDS011;11311;52.192;20.900;2023-04-01T07:45:12;32.00;;;28.75;;
22284;SDS011;11311;52.192;20.900;2023-04-01T07:47:52;31.23;;;28.13;;
22284;SDS011;11311;52.192;20.900;2023-04-01T07:50:29;31.20;;;27.55;;
22284;SDS011;11311;52.192;20.900;2023-04-01T07:53:03;31.17;;;28.05;;
22284;SDS011;11311;52.192;20.900;2023-04-01T07:55:38;27.67;;;24.83;;
22284;SDS011;11311;52.192;20.900;2023-04-01T07:58:13;28.40;;;25.55;;
22284;SDS011;11311;52.192;20.900;2023-04-01T08:00:47;27.35;;;24.38;;
22284;SDS011;11311;52.192;20.900;2023-04-01T08:03:33;29.50;;;26.38;;
22284;SDS011;11311;52.192;20.900;2023-04-01T08:06:09;29.17;;;25.98;;
22284;SDS011;11311;52.192;20.900;2023-04-01T08:08:46;28.67;;;25.33;;
22284;SDS011;11311;52.192;20.900;2023-04-01T08:11:55;26.85;;;23.88;;
22284;SDS011;11311;52.192;20.900;2023-04-01T08:14:53;25.35;;;22.95;;
22284;SDS011;11311;52.192;20.900;2023-04-01T08:18:01;25.23;;;22.25;;
22284;SDS011;11311;52.192;20.900;2023-04-01T08:20:36;26.80;;;24.05;;
22284;SDS011;11311;52.192;20.900;2023-04-01T08:23:10;26.80;;;24.05;;
22284;SDS011;11311;52.192;20.900;2023-04-01T08:25:44;24.25;;;21.65;;
22284;SDS011;11311;52.192;20.900;2023-04-01T08:28:19;27.23;;;24.40;;
22284;SDS011;11311;52.192;20.900;2023-04-01T08:30:52;24.45;;;21.85;;
22284;SDS011;11311;52.192;20.900;2023-04-01T08:33:24;23.10;;;20.80;;
22284;SDS011;11311;52.192;20.900;2023-04-01T08:36:09;23.00;;;18.90;;
22284;SDS011;11311;52.192;20.900;2023-04-01T08:38:43;21.08;;;18.83;;
22284;SDS011;11311;52.192;20.900;2023-04-01T08:41:22;19.00;;;17.00;;
22284;SDS011;11311;52.192;20.900;2023-04-01T08:44:49;18.40;;;16.50;;
22284;SDS011;11311;52.192;20.900;2023-04-01T08:47:52;19.90;;;17.05;;
22284;SDS011;11311;52.192;20.900;2023-04-01T08:50:33;18.08;;;16.13;;
22284;SDS011;11311;52.192;20.900;2023-04-01T08:53:39;17.23;;;14.65;;
22284;SDS011;11311;52.192;20.900;2023-04-01T08:56:22;15.67;;;14.03;;
22284;SDS011;11311;52.192;20.900;2023-04-01T08:59:01;18.95;;;16.95;;
22284;SDS011;11311;52.192;20.900;2023-04-01T09:01:48;17.75;;;15.65;;
22284;SDS011;11311;52.192;20.900;2023-04-01T09:04:59;17.15;;;15.32;;
22284;SDS011;11311;52.192;20.900;2023-04-01T09:07:48;18.73;;;16.75;;
22284;SDS011;11311;52.192;20.900;2023-04-01T09:13:51;18.55;;;16.65;;
22284;SDS011;11311;52.192;20.900;2023-04-01T09:16:45;18.33;;;16.52;;
22284;SDS011;11311;52.192;20.900;2023-04-01T09:19:28;16.25;;;14.55;;
22284;SDS011;11311;52.192;20.900;2023-04-01T09:22:10;17.80;;;15.05;;
22284;SDS011;11311;52.192;20.900;2023-04-01T09:25:01;17.45;;;15.73;;
22284;SDS011;11311;52.192;20.900;2023-04-01T09:27:45;17.77;;;15.23;;
22284;SDS011;11311;52.192;20.900;2023-04-01T09:33:49;15.55;;;13.95;;
22284;SDS011;11311;52.192;20.900;2023-04-01T09:36:57;11.57;;;8.95;;
22284;SDS011;11311;52.192;20.900;2023-04-01T09:39:37;8.35;;;7.55;;
22284;SDS011;11311;52.192;20.900;2023-04-01T09:42:29;7.82;;;6.75;;
22284;SDS011;11311;52.192;20.900;2023-04-01T09:45:26;7.72;;;6.95;;
22284;SDS011;11311;52.192;20.900;2023-04-01T09:48:09;6.45;;;5.75;;
22284;SDS011;11311;52.192;20.900;2023-04-01T09:50:47;7.07;;;6.38;;
22284;SDS011;11311;52.192;20.900;2023-04-01T09:53:28;7.80;;;5.55;;
22284;SDS011;11311;52.192;20.900;2023-04-01T10:02:54;7.97;;;6.65;;
22284;SDS011;11311;52.192;20.900;2023-04-01T10:11:50;9.10;;;6.90;;
22284;SDS011;11311;52.192;20.900;2023-04-01T10:14:49;5.88;;;5.28;;
22284;SDS011;11311;52.192;20.900;2023-04-01T10:20:31;8.82;;;5.80;;
22284;SDS011;11311;52.192;20.900;2023-04-01T10:23:30;5.85;;;5.13;;
22284;SDS011;11311;52.192;20.900;2023-04-01T10:26:31;5.20;;;4.70;;
22284;SDS011;11311;52.192;20.900;2023-04-01T10:29:50;7.00;;;6.30;;
22284;SDS011;11311;52.192;20.900;2023-04-01T10:39:01;6.72;;;6.13;;
22284;SDS011;11311;52.192;20.900;2023-04-01T10:51:10;9.52;;;8.63;;
22284;SDS011;11311;52.192;20.900;2023-04-01T10:53:47;10.35;;;8.10;;
22284;SDS011;11311;52.192;20.900;2023-04-01T10:56:54;8.65;;;7.05;;
22284;SDS011;11311;52.192;20.900;2023-04-01T10:59:57;8.43;;;6.07;;
22284;SDS011;11311;52.192;20.900;2023-04-01T11:03:26;8.25;;;6.07;;
22284;SDS011;11311;52.192;20.900;2023-04-01T11:06:55;7.40;;;6.70;;
22284;SDS011;11311;52.192;20.900;2023-04-01T11:16:29;5.93;;;5.32;;
22284;SDS011;11311;52.192;20.900;2023-04-01T11:25:35;14.23;;;8.45;;
22284;SDS011;11311;52.192;20.900;2023-04-01T11:28:40;9.15;;;8.35;;
22284;SDS011;11311;52.192;20.900;2023-04-01T11:31:19;9.48;;;8.13;;
22284;SDS011;11311;52.192;20.900;2023-04-01T11:33:57;9.88;;;8.85;;
22284;SDS011;11311;52.192;20.900;2023-04-01T11:36:34;6.60;;;6.00;;
22284;SDS011;11311;52.192;20.900;2023-04-01T11:42:10;7.38;;;5.00;;
22284;SDS011;11311;52.192;20.900;2023-04-01T11:45:08;6.43;;;5.78;;
22284;SDS011;11311;52.192;20.900;2023-04-01T11:47:47;8.32;;;7.05;;
22284;SDS011;11311;52.192;20.900;2023-04-01T11:50:28;8.48;;;7.63;;
22284;SDS011;11311;52.192;20.900;2023-04-01T11:53:11;7.03;;;6.43;;
22284;SDS011;11311;52.192;20.900;2023-04-01T11:55:50;6.07;;;4.80;;
22284;SDS011;11311;52.192;20.900;2023-04-01T11:58:31;5.95;;;4.57;;
22284;SDS011;11311;52.192;20.900;2023-04-01T12:04:19;4.18;;;3.78;;
22284;SDS011;11311;52.192;20.900;2023-04-01T12:07:08;3.80;;;3.50;;
22284;SDS011;11311;52.192;20.900;2023-04-01T12:09:46;3.38;;;2.97;;
22284;SDS011;11311;52.192;20.900;2023-04-01T12:12:22;3.15;;;2.95;;
22284;SDS011;11311;52.192;20.900;2023-04-01T12:15:00;4.10;;;2.72;;
22284;SDS011;11311;52.192;20.900;2023-04-01T12:17:42;4.00;;;3.63;;
22284;SDS011;11311;52.192;20.900;2023-04-01T12:20:23;4.20;;;3.80;;
22284;SDS011;11311;52.192;20.900;2023-04-01T12:23:05;4.10;;;3.80;;
22284;SDS011;11311;52.192;20.900;2023-04-01T12:28:58;4.20;;;3.80;;
22284;SDS011;11311;52.192;20.900;2023-04-01T12:31:34;4.70;;;4.30;;
22284;SDS011;11311;52.192;20.900;2023-04-01T12:34:33;4.97;;;4.47;;
22284;SDS011;11311;52.192;20.900;2023-04-01T12:37:11;5.05;;;4.63;;
22284;SDS011;11311;52.192;20.900;2023-04-01T12:42:52;4.78;;;4.38;;
22284;SDS011;11311;52.192;20.900;2023-04-01T12:45:29;4.68;;;4.28;;
22284;SDS011;11311;52.192;20.900;2023-04-01T12:48:16;3.85;;;3.50;;
22284;SDS011;11311;52.192;20.900;2023-04-01T12:54:01;4.32;;;3.92;;
22284;SDS011;11311;52.192;20.900;2023-04-01T12:56:42;5.05;;;4.55;;
22284;SDS011;11311;52.192;20.900;2023-04-01T12:59:19;6.47;;;5.75;;
22284;SDS011;11311;52.192;20.900;2023-04-01T13:01:59;5.55;;;4.50;;
22284;SDS011;11311;52.192;20.900;2023-04-01T13:04:51;5.28;;;4.78;;
22284;SDS011;11311;52.192;20.900;2023-04-01T13:07:43;5.88;;;5.38;;
22284;SDS011;11311;52.192;20.900;2023-04-01T13:10:27;6.43;;;5.82;;
22284;SDS011;11311;52.192;20.900;2023-04-01T13:13:07;7.07;;;5.78;;
22284;SDS011;11311;52.192;20.900;2023-04-01T13:15:47;6.65;;;6.05;;
22284;SDS011;11311;52.192;20.900;2023-04-01T13:18:22;6.40;;;5.90;;
22284;SDS011;11311;52.192;20.900;2023-04-01T13:20:59;7.95;;;7.15;;
22284;SDS011;11311;52.192;20.900;2023-04-01T13:23:36;5.40;;;4.57;;
22284;SDS011;11311;52.192;20.900;2023-04-01T13:26:13;3.65;;;3.17;;
22284;SDS011;11311;52.192;20.900;2023-04-01T13:28:50;3.65;;;3.35;;
22284;SDS011;11311;52.192;20.900;2023-04-01T13:31:29;4.40;;;2.78;;
22284;SDS011;11311;52.192;20.900;2023-04-01T13:34:22;2.40;;;2.20;;
22284;SDS011;11311;52.192;20.900;2023-04-01T13:37:02;3.13;;;2.83;;
22284;SDS011;11311;52.192;20.900;2023-04-01T13:39:42;6.05;;;2.38;;
22284;SDS011;11311;52.192;20.900;2023-04-01T13:42:17;5.07;;;2.58;;
22284;SDS011;11311;52.192;20.900;2023-04-01T13:44:55;2.63;;;2.38;;
22284;SDS011;11311;52.192;20.900;2023-04-01T13:47:32;2.53;;;2.33;;
22284;SDS011;11311;52.192;20.900;2023-04-01T13:53:40;2.88;;;2.67;;
22284;SDS011;11311;52.192;20.900;2023-04-01T13:56:24;3.55;;;2.67;;
22284;SDS011;11311;52.192;20.900;2023-04-01T13:59:10;3.10;;;2.83;;
22284;SDS011;11311;52.192;20.900;2023-04-01T14:02:07;2.60;;;2.35;;
22284;SDS011;11311;52.192;20.900;2023-04-01T14:04:49;3.40;;;2.72;;
22284;SDS011;11311;52.192;20.900;2023-04-01T14:07:38;2.75;;;2.55;;
22284;SDS011;11311;52.192;20.900;2023-04-01T14:10:18;2.50;;;2.30;;
22284;SDS011;11311;52.192;20.900;2023-04-01T14:12:50;2.92;;;2.72;;
22284;SDS011;11311;52.192;20.900;2023-04-01T14:15:33;3.35;;;3.05;;
22284;SDS011;11311;52.192;20.900;2023-04-01T14:21:27;4.13;;;3.75;;
22284;SDS011;11311;52.192;20.900;2023-04-01T14:24:08;6.63;;;5.95;;
22284;SDS011;11311;52.192;20.900;2023-04-01T14:26:53;3.72;;;3.42;;
22284;SDS011;11311;52.192;20.900;2023-04-01T14:29:47;3.97;;;3.58;;
22284;SDS011;11311;52.192;20.900;2023-04-01T14:32:24;4.30;;;3.40;;
22284;SDS011;11311;52.192;20.900;2023-04-01T14:35:11;4.33;;;3.93;;
22284;SDS011;11311;52.192;20.900;2023-04-01T14:37:56;3.83;;;3.50;;
22284;SDS011;11311;52.192;20.900;2023-04-01T14:40:49;4.10;;;3.47;;
22284;SDS011;11311;52.192;20.900;2023-04-01T14:43:38;3.35;;;3.05;;
22284;SDS011;11311;52.192;20.900;2023-04-01T14:46:32;2.97;;;2.78;;
22284;SDS011;11311;52.192;20.900;2023-04-01T14:49:14;3.45;;;3.17;;
22284;SDS011;11311;52.192;20.900;2023-04-01T14:51:48;2.65;;;2.45;;
22284;SDS011;11311;52.192;20.900;2023-04-01T14:54:17;3.60;;;3.00;;
22284;SDS011;11311;52.192;20.900;2023-04-01T14:56:51;3.22;;;2.92;;
22284;SDS011;11311;52.192;20.900;2023-04-01T14:59:30;4.00;;;2.60;;
22284;SDS011;11311;52.192;20.900;2023-04-01T15:02:01;3.45;;;3.15;;
22284;SDS011;11311;52.192;20.900;2023-04-01T15:04:40;4.10;;;3.70;;
22284;SDS011;11311;52.192;20.900;2023-04-01T15:07:21;2.97;;;2.67;;
22284;SDS011;11311;52.192;20.900;2023-04-01T15:10:18;3.83;;;3.53;;
22284;SDS011;11311;52.192;20.900;2023-04-01T15:13:13;3.90;;;3.33;;
22284;SDS011;11311;52.192;20.900;2023-04-01T15:15:48;3.95;;;3.38;;
22284;SDS011;11311;52.192;20.900;2023-04-01T15:18:27;3.40;;;3.20;;
22284;SDS011;11311;52.192;20.900;2023-04-01T15:21:11;5.85;;;4.03;;
22284;SDS011;11311;52.192;20.900;2023-04-01T15:23:53;7.95;;;4.75;;
22284;SDS011;11311;52.192;20.900;2023-04-01T15:26:29;6.40;;;4.40;;
22284;SDS011;11311;52.192;20.900;2023-04-01T15:31:49;4.75;;;3.13;;
22284;SDS011;11311;52.192;20.900;2023-04-01T15:34:26;3.83;;;3.53;;
22284;SDS011;11311;52.192;20.900;2023-04-01T15:37:02;6.55;;;5.63;;
22284;SDS011;11311;52.192;20.900;2023-04-01T15:39:42;5.53;;;3.80;;
22284;SDS011;11311;52.192;20.900;2023-04-01T15:42:20;4.47;;;4.07;;
22284;SDS011;11311;52.192;20.900;2023-04-01T15:45:02;4.25;;;3.58;;
22284;SDS011;11311;52.192;20.900;2023-04-01T15:47:39;5.57;;;4.07;;
22284;SDS011;11311;52.192;20.900;2023-04-01T15:50:26;4.38;;;3.80;;
22284;SDS011;11311;52.192;20.900;2023-04-01T15:53:11;5.15;;;3.97;;
22284;SDS011;11311;52.192;20.900;2023-04-01T15:56:06;3.88;;;3.33;;
22284;SDS011;11311;52.192;20.900;2023-04-01T15:58:42;7.70;;;3.72;;
22284;SDS011;11311;52.192;20.900;2023-04-01T16:01:18;4.28;;;3.83;;
22284;SDS011;11311;52.192;20.900;2023-04-01T16:03:55;7.53;;;4.13;;
22284;SDS011;11311;52.192;20.900;2023-04-01T16:06:54;5.13;;;4.13;;
22284;SDS011;11311;52.192;20.900;2023-04-01T16:09:41;7.68;;;3.85;;
22284;SDS011;11311;52.192;20.900;2023-04-01T16:12:18;5.20;;;3.83;;
22284;SDS011;11311;52.192;20.900;2023-04-01T16:14:54;5.63;;;3.72;;
22284;SDS011;11311;52.192;20.900;2023-04-01T16:17:41;3.88;;;3.40;;
22284;SDS011;11311;52.192;20.900;2023-04-01T16:20:22;5.70;;;3.90;;
22284;SDS011;11311;52.192;20.900;2023-04-01T16:22:54;4.75;;;3.80;;
22284;SDS011;11311;52.192;20.900;2023-04-01T16:25:31;4.63;;;3.58;;
22284;SDS011;11311;52.192;20.900;2023-04-01T16:28:12;4.82;;;3.60;;
22284;SDS011;11311;52.192;20.900;2023-04-01T16:30:47;4.47;;;3.80;;
22284;SDS011;11311;52.192;20.900;2023-04-01T16:33:20;6.70;;;3.92;;
22284;SDS011;11311;52.192;20.900;2023-04-01T16:35:53;6.40;;;3.60;;
22284;SDS011;11311;52.192;20.900;2023-04-01T16:38:26;3.60;;;3.10;;
22284;SDS011;11311;52.192;20.900;2023-04-01T16:41:04;3.42;;;3.13;;
22284;SDS011;11311;52.192;20.900;2023-04-01T16:43:42;4.22;;;2.97;;
22284;SDS011;11311;52.192;20.900;2023-04-01T16:46:26;4.55;;;3.50;;
22284;SDS011;11311;52.192;20.900;2023-04-01T16:48:58;4.00;;;2.85;;
22284;SDS011;11311;52.192;20.900;2023-04-01T16:51:32;4.38;;;3.33;;
22284;SDS011;11311;52.192;20.900;2023-04-01T16:54:08;6.25;;;3.00;;
22284;SDS011;11311;52.192;20.900;2023-04-01T16:56:42;4.50;;;3.03;;
22284;SDS011;11311;52.192;20.900;2023-04-01T16:59:16;6.70;;;3.78;;